KRME/RME METAR and TAF weather

Enter ICAO airport designator
Station Type Date Time Source
KRME METAR 2022/07/03 14:53 UTC NOAA

KRME 031453Z 29010KT 10SM CLR 22/12 A3008 RMK AO2 SLP184 T02170117 51008


Station Type Date Time Source
KRME Decoded METAR 2022/07/03 14:53 UTC NOAA

GRIFFISS AIRFIELD, NY, United States (KRME) 43-14N 075-24W
Jul 03, 2022 - 10:53 AM EDT / 2022.07.03 1453 UTC
Wind: from the WNW (290 degrees) at 12 MPH (10 KT):0
Visibility: 10 mile(s):0
Sky conditions: clear
Temperature: 71.1 F (21.7 C)
Dew Point: 53.1 F (11.7 C)
Relative Humidity: 52%
Pressure (altimeter): 30.08 in. Hg (1018 hPa)
Pressure tendency: 0.02 inches (0.8 hPa) higher than three hours ago
ob: KRME 031453Z 29010KT 10SM CLR 22/12 A3008 RMK AO2 SLP184 T02170117 51008
cycle: 15

Station Type Date Time Source
KRME TAF 2022/07/03 12:22 UTC NOAA

TAF KRME 031120Z 0312/0412 28004KT P6SM FEW200
FM031400 28007KT P6SM SKC
FM040000 VRB03KT P6SM SKC

Example: see airport list